Aeroporto :
LOGIN :

Iscrizione | Disclaimer

   EN    FR    IT 

 










Sommario :    VFR   VFR Marginale   IFR   IFR Intensivo   IFR Molto Intensivo
Visibilità : 
Base nubi : 
>= 8 km
>= 3000ft
5 / 8 km
1000 / 3000 ft
1500m / 5 km
500 / 1000 ft
800 / 1500m
200 / 500 ft
< 800m
< 200 ft
Simboli :   Temporali  Nebbia  Neve Forte  Precipitazioni Forti  Vento > 20 kt
SIGMETs :   Varie  Temporali  Ghiacco  Turbolenza  Onda orograficha  Ceneri Vulcaniche






- Altitudine del aeroporto : 93 ft
- Codice IATA : XRY


LEJR - Jerez

ULTIMO METAR :
  • 280000Z AUTO 34010KT CAVOK 10/06 Q1022

METARs OBSOLETI :
  • 272330Z AUTO 30004KT CAVOK 08/06 Q1022
  • 272300Z AUTO VRB02KT CAVOK 09/06 Q1023
  • 272230Z AUTO 33003KT CAVOK 10/07 Q1023
  • 272200Z VRB06KT CAVOK 12/08 Q1023
  • 272130Z 30007KT CAVOK 13/08 Q1023

TAF TAF LEJR
Valido dal 28 a 00 ore il 29 a 00 ore UTC


272300Z 2800/2824 VRB03KT CAVOK TX24/2815Z TN04/2806Z
BECMG 2810/2812 20010KT
BECMG 2822/2824 VRB03KT



MetMap, La meteo Aeronautica in un colpo d'occhio ! - Copyright ORBIFLY Dicembre 2007 - Disclaimer

ORBIFLY MET'MAP TEAM :

Programmazione e sviluppo : Alexandra Zaïnal
Concezione : Baudouin d'Aumeries
Aiuto per la programmazione : Marc-Olivier Méhu
Supporto tecnico e logistico : Manuel Goepfert
Aiuto per la traduzione : Arnaldo La Scala

Contatto : metmap@orbifly.com




FONTI E CREDITI :

   NOAA